sensor_id;sensor_type;location;lat;lon;timestamp;temperature;humidity
20726;DHT22;10524;48.132;8.518;2024-03-07T00:00:57;3.60;99.90
20726;DHT22;10524;48.132;8.518;2024-03-07T00:03:25;3.60;99.90
20726;DHT22;10524;48.132;8.518;2024-03-07T00:06:10;3.60;99.90
20726;DHT22;10524;48.132;8.518;2024-03-07T00:08:36;3.60;99.90
20726;DHT22;10524;48.132;8.518;2024-03-07T00:11:01;3.60;99.90
20726;DHT22;10524;48.132;8.518;2024-03-07T00:13:28;3.60;99.90
20726;DHT22;10524;48.132;8.518;2024-03-07T00:15:53;3.60;99.90
20726;DHT22;10524;48.132;8.518;2024-03-07T00:18:19;3.60;99.90
20726;DHT22;10524;48.132;8.518;2024-03-07T00:20:45;3.60;99.90
20726;DHT22;10524;48.132;8.518;2024-03-07T00:23:10;3.60;99.90
20726;DHT22;10524;48.132;8.518;2024-03-07T00:25:36;3.70;99.90
20726;DHT22;10524;48.132;8.518;2024-03-07T00:28:03;3.70;99.90
20726;DHT22;10524;48.132;8.518;2024-03-07T00:30:29;3.70;99.90
20726;DHT22;10524;48.132;8.518;2024-03-07T00:32:56;3.60;99.90
20726;DHT22;10524;48.132;8.518;2024-03-07T00:35:23;3.70;99.90
20726;DHT22;10524;48.132;8.518;2024-03-07T00:37:48;3.70;99.90
20726;DHT22;10524;48.132;8.518;2024-03-07T00:40:14;3.70;99.90
20726;DHT22;10524;48.132;8.518;2024-03-07T00:42:40;3.70;99.90
20726;DHT22;10524;48.132;8.518;2024-03-07T00:45:06;3.70;99.90
20726;DHT22;10524;48.132;8.518;2024-03-07T00:47:32;3.80;99.90
20726;DHT22;10524;48.132;8.518;2024-03-07T00:49:58;3.80;99.90
20726;DHT22;10524;48.132;8.518;2024-03-07T00:52:24;3.80;99.90
20726;DHT22;10524;48.132;8.518;2024-03-07T00:54:51;3.80;99.90
20726;DHT22;10524;48.132;8.518;2024-03-07T00:57:17;3.80;99.90
20726;DHT22;10524;48.132;8.518;2024-03-07T00:59:42;3.80;99.90
20726;DHT22;10524;48.132;8.518;2024-03-07T01:02:08;3.80;99.90
20726;DHT22;10524;48.132;8.518;2024-03-07T01:04:34;3.80;99.90
20726;DHT22;10524;48.132;8.518;2024-03-07T01:07:01;3.80;99.90
20726;DHT22;10524;48.132;8.518;2024-03-07T01:09:26;3.80;99.90
20726;DHT22;10524;48.132;8.518;2024-03-07T01:11:54;3.80;99.90
20726;DHT22;10524;48.132;8.518;2024-03-07T01:14:21;3.80;99.90
20726;DHT22;10524;48.132;8.518;2024-03-07T01:16:47;3.90;99.90
20726;DHT22;10524;48.132;8.518;2024-03-07T01:19:13;3.80;99.90
20726;DHT22;10524;48.132;8.518;2024-03-07T01:21:40;3.80;99.90
20726;DHT22;10524;48.132;8.518;2024-03-07T01:24:06;3.90;99.90
20726;DHT22;10524;48.132;8.518;2024-03-07T01:26:32;3.80;99.90
20726;DHT22;10524;48.132;8.518;2024-03-07T01:28:59;3.90;99.90
20726;DHT22;10524;48.132;8.518;2024-03-07T01:31:25;3.90;99.90
20726;DHT22;10524;48.132;8.518;2024-03-07T01:33:51;3.90;99.90
20726;DHT22;10524;48.132;8.518;2024-03-07T01:36:18;3.90;99.90
20726;DHT22;10524;48.132;8.518;2024-03-07T01:38:44;3.90;99.90
20726;DHT22;10524;48.132;8.518;2024-03-07T01:41:09;3.90;99.90
20726;DHT22;10524;48.132;8.518;2024-03-07T01:43:35;3.90;99.90
20726;DHT22;10524;48.132;8.518;2024-03-07T01:46:02;3.90;99.90
20726;DHT22;10524;48.132;8.518;2024-03-07T01:48:29;3.90;99.90
20726;DHT22;10524;48.132;8.518;2024-03-07T01:51:00;4.00;99.90
20726;DHT22;10524;48.132;8.518;2024-03-07T01:53:30;4.00;99.90
20726;DHT22;10524;48.132;8.518;2024-03-07T01:55:59;4.00;99.90
20726;DHT22;10524;48.132;8.518;2024-03-07T01:58:26;4.00;99.90
20726;DHT22;10524;48.132;8.518;2024-03-07T02:00:51;4.00;99.90
20726;DHT22;10524;48.132;8.518;2024-03-07T02:03:17;4.00;99.90
20726;DHT22;10524;48.132;8.518;2024-03-07T02:05:43;4.00;99.90
20726;DHT22;10524;48.132;8.518;2024-03-07T02:08:10;4.00;99.90
20726;DHT22;10524;48.132;8.518;2024-03-07T02:10:36;4.00;99.90
20726;DHT22;10524;48.132;8.518;2024-03-07T02:13:02;4.00;99.90
20726;DHT22;10524;48.132;8.518;2024-03-07T02:15:28;4.00;99.90
20726;DHT22;10524;48.132;8.518;2024-03-07T02:17:54;4.00;99.90
20726;DHT22;10524;48.132;8.518;2024-03-07T02:20:19;4.00;99.90
20726;DHT22;10524;48.132;8.518;2024-03-07T02:22:46;4.00;99.90
20726;DHT22;10524;48.132;8.518;2024-03-07T02:25:12;4.00;99.90
20726;DHT22;10524;48.132;8.518;2024-03-07T02:27:38;4.00;99.90
20726;DHT22;10524;48.132;8.518;2024-03-07T02:30:05;4.00;99.90
20726;DHT22;10524;48.132;8.518;2024-03-07T02:32:34;4.00;99.90
20726;DHT22;10524;48.132;8.518;2024-03-07T02:35:00;4.00;99.90
20726;DHT22;10524;48.132;8.518;2024-03-07T02:37:26;4.00;99.90
20726;DHT22;10524;48.132;8.518;2024-03-07T02:39:52;4.00;99.90
20726;DHT22;10524;48.132;8.518;2024-03-07T02:42:18;4.00;99.90
20726;DHT22;10524;48.132;8.518;2024-03-07T02:44:44;3.90;99.90
20726;DHT22;10524;48.132;8.518;2024-03-07T02:47:10;3.90;99.90
20726;DHT22;10524;48.132;8.518;2024-03-07T02:49:36;3.90;99.90
20726;DHT22;10524;48.132;8.518;2024-03-07T02:52:02;3.90;99.90
20726;DHT22;10524;48.132;8.518;2024-03-07T02:54:28;3.90;99.90
20726;DHT22;10524;48.132;8.518;2024-03-07T02:56:53;3.90;99.90
20726;DHT22;10524;48.132;8.518;2024-03-07T02:59:19;3.90;99.90
20726;DHT22;10524;48.132;8.518;2024-03-07T03:01:45;3.90;99.90
20726;DHT22;10524;48.132;8.518;2024-03-07T03:04:11;3.90;99.90
20726;DHT22;10524;48.132;8.518;2024-03-07T03:06:37;3.90;99.90
20726;DHT22;10524;48.132;8.518;2024-03-07T03:09:03;3.80;99.90
20726;DHT22;10524;48.132;8.518;2024-03-07T03:11:30;3.80;99.90
20726;DHT22;10524;48.132;8.518;2024-03-07T03:13:56;3.80;99.90
20726;DHT22;10524;48.132;8.518;2024-03-07T03:16:21;3.80;99.90
20726;DHT22;10524;48.132;8.518;2024-03-07T03:18:47;3.80;99.90
20726;DHT22;10524;48.132;8.518;2024-03-07T03:21:14;3.80;99.90
20726;DHT22;10524;48.132;8.518;2024-03-07T03:23:41;3.70;99.90
20726;DHT22;10524;48.132;8.518;2024-03-07T03:26:06;3.70;99.90
20726;DHT22;10524;48.132;8.518;2024-03-07T03:28:32;3.70;99.90
20726;DHT22;10524;48.132;8.518;2024-03-07T03:30:58;3.70;99.90
20726;DHT22;10524;48.132;8.518;2024-03-07T03:33:24;3.70;99.90
20726;DHT22;10524;48.132;8.518;2024-03-07T03:35:49;3.60;99.90
20726;DHT22;10524;48.132;8.518;2024-03-07T03:38:15;3.60;99.90
20726;DHT22;10524;48.132;8.518;2024-03-07T03:40:41;3.60;99.90
20726;DHT22;10524;48.132;8.518;2024-03-07T03:43:07;3.60;99.90
20726;DHT22;10524;48.132;8.518;2024-03-07T03:45:33;3.50;99.90
20726;DHT22;10524;48.132;8.518;2024-03-07T03:47:59;3.50;99.90
20726;DHT22;10524;48.132;8.518;2024-03-07T03:50:25;3.50;99.90
20726;DHT22;10524;48.132;8.518;2024-03-07T03:52:51;3.50;99.90
20726;DHT22;10524;48.132;8.518;2024-03-07T03:55:17;3.50;99.90
20726;DHT22;10524;48.132;8.518;2024-03-07T03:57:44;3.40;99.90
20726;DHT22;10524;48.132;8.518;2024-03-07T04:00:12;3.50;99.90
20726;DHT22;10524;48.132;8.518;2024-03-07T04:02:42;3.40;99.90
20726;DHT22;10524;48.132;8.518;2024-03-07T04:05:10;3.40;99.90
20726;DHT22;10524;48.132;8.518;2024-03-07T04:07:37;3.40;99.90
20726;DHT22;10524;48.132;8.518;2024-03-07T04:10:04;3.40;99.90
20726;DHT22;10524;48.132;8.518;2024-03-07T04:12:33;3.30;99.90
20726;DHT22;10524;48.132;8.518;2024-03-07T04:14:59;3.30;99.90
20726;DHT22;10524;48.132;8.518;2024-03-07T04:17:25;3.20;99.90
20726;DHT22;10524;48.132;8.518;2024-03-07T04:19:51;3.20;99.90
20726;DHT22;10524;48.132;8.518;2024-03-07T04:22:17;3.20;99.90
20726;DHT22;10524;48.132;8.518;2024-03-07T04:24:45;3.20;99.90
20726;DHT22;10524;48.132;8.518;2024-03-07T04:27:11;3.20;99.90
20726;DHT22;10524;48.132;8.518;2024-03-07T04:29:37;3.20;99.90
20726;DHT22;10524;48.132;8.518;2024-03-07T04:32:04;3.20;99.90
20726;DHT22;10524;48.132;8.518;2024-03-07T04:34:30;3.10;99.90
20726;DHT22;10524;48.132;8.518;2024-03-07T04:37:00;3.10;99.90
20726;DHT22;10524;48.132;8.518;2024-03-07T04:39:29;3.00;99.90
20726;DHT22;10524;48.132;8.518;2024-03-07T04:42:05;3.00;99.90
20726;DHT22;10524;48.132;8.518;2024-03-07T04:44:35;3.00;99.90
20726;DHT22;10524;48.132;8.518;2024-03-07T04:47:03;3.00;99.90
20726;DHT22;10524;48.132;8.518;2024-03-07T04:49:30;3.00;99.90
20726;DHT22;10524;48.132;8.518;2024-03-07T04:51:57;2.90;99.90
20726;DHT22;10524;48.132;8.518;2024-03-07T04:54:24;2.90;99.90
20726;DHT22;10524;48.132;8.518;2024-03-07T04:56:51;2.90;99.90
20726;DHT22;10524;48.132;8.518;2024-03-07T04:59:18;2.90;99.90
20726;DHT22;10524;48.132;8.518;2024-03-07T05:01:45;2.90;99.90
20726;DHT22;10524;48.132;8.518;2024-03-07T05:04:15;2.90;99.90
20726;DHT22;10524;48.132;8.518;2024-03-07T05:06:42;2.90;99.90
20726;DHT22;10524;48.132;8.518;2024-03-07T05:09:10;2.90;99.90
20726;DHT22;10524;48.132;8.518;2024-03-07T05:11:47;2.90;99.90
20726;DHT22;10524;48.132;8.518;2024-03-07T05:14:12;2.80;99.90
20726;DHT22;10524;48.132;8.518;2024-03-07T05:16:38;2.80;99.90
20726;DHT22;10524;48.132;8.518;2024-03-07T05:19:04;2.80;99.90
20726;DHT22;10524;48.132;8.518;2024-03-07T05:21:30;2.80;99.90
20726;DHT22;10524;48.132;8.518;2024-03-07T05:23:56;2.80;99.90
20726;DHT22;10524;48.132;8.518;2024-03-07T05:26:23;2.80;99.90
20726;DHT22;10524;48.132;8.518;2024-03-07T05:28:49;2.80;99.90
20726;DHT22;10524;48.132;8.518;2024-03-07T05:31:15;2.80;99.90
20726;DHT22;10524;48.132;8.518;2024-03-07T05:33:44;2.70;99.90
20726;DHT22;10524;48.132;8.518;2024-03-07T05:36:12;2.70;99.90
20726;DHT22;10524;48.132;8.518;2024-03-07T05:38:44;2.70;99.90
20726;DHT22;10524;48.132;8.518;2024-03-07T05:41:13;2.70;99.90
20726;DHT22;10524;48.132;8.518;2024-03-07T05:43:39;2.60;99.90
20726;DHT22;10524;48.132;8.518;2024-03-07T05:46:05;2.60;99.90
20726;DHT22;10524;48.132;8.518;2024-03-07T05:48:35;2.60;99.90
20726;DHT22;10524;48.132;8.518;2024-03-07T05:51:01;2.60;99.90
20726;DHT22;10524;48.132;8.518;2024-03-07T05:53:27;2.50;99.90
20726;DHT22;10524;48.132;8.518;2024-03-07T05:55:53;2.50;99.90
20726;DHT22;10524;48.132;8.518;2024-03-07T05:58:18;2.50;99.90
20726;DHT22;10524;48.132;8.518;2024-03-07T06:00:47;2.50;99.90
20726;DHT22;10524;48.132;8.518;2024-03-07T06:03:18;2.50;99.90
20726;DHT22;10524;48.132;8.518;2024-03-07T06:05:47;2.50;99.90
20726;DHT22;10524;48.132;8.518;2024-03-07T06:08:19;2.50;99.90
20726;DHT22;10524;48.132;8.518;2024-03-07T06:10:46;2.50;99.90
20726;DHT22;10524;48.132;8.518;2024-03-07T06:13:13;2.50;99.90
20726;DHT22;10524;48.132;8.518;2024-03-07T06:15:39;2.50;99.90
20726;DHT22;10524;48.132;8.518;2024-03-07T06:18:08;2.50;99.90
20726;DHT22;10524;48.132;8.518;2024-03-07T06:20:34;2.40;99.90
20726;DHT22;10524;48.132;8.518;2024-03-07T06:23:01;2.40;99.90
20726;DHT22;10524;48.132;8.518;2024-03-07T06:25:34;2.50;99.90
20726;DHT22;10524;48.132;8.518;2024-03-07T06:28:06;2.40;99.90
20726;DHT22;10524;48.132;8.518;2024-03-07T06:30:40;2.40;99.90
20726;DHT22;10524;48.132;8.518;2024-03-07T06:33:06;2.40;99.90
20726;DHT22;10524;48.132;8.518;2024-03-07T06:35:33;2.40;99.90
20726;DHT22;10524;48.132;8.518;2024-03-07T06:38:06;2.40;99.90
20726;DHT22;10524;48.132;8.518;2024-03-07T06:40:32;2.40;99.90
20726;DHT22;10524;48.132;8.518;2024-03-07T06:43:01;2.40;99.90
20726;DHT22;10524;48.132;8.518;2024-03-07T06:45:29;2.40;99.90
20726;DHT22;10524;48.132;8.518;2024-03-07T06:47:55;2.50;99.90
20726;DHT22;10524;48.132;8.518;2024-03-07T06:50:22;2.50;99.90
20726;DHT22;10524;48.132;8.518;2024-03-07T06:52:49;2.40;99.90
20726;DHT22;10524;48.132;8.518;2024-03-07T06:55:18;2.40;99.90
20726;DHT22;10524;48.132;8.518;2024-03-07T06:57:45;2.40;99.90
20726;DHT22;10524;48.132;8.518;2024-03-07T07:00:15;2.40;99.90
20726;DHT22;10524;48.132;8.518;2024-03-07T07:02:50;2.50;99.90
20726;DHT22;10524;48.132;8.518;2024-03-07T07:05:16;2.50;99.90
20726;DHT22;10524;48.132;8.518;2024-03-07T07:07:47;2.60;99.90
20726;DHT22;10524;48.132;8.518;2024-03-07T07:10:13;2.50;99.90
20726;DHT22;10524;48.132;8.518;2024-03-07T07:12:47;2.50;99.90
20726;DHT22;10524;48.132;8.518;2024-03-07T07:15:17;2.60;99.90
20726;DHT22;10524;48.132;8.518;2024-03-07T07:17:46;2.60;99.90
20726;DHT22;10524;48.132;8.518;2024-03-07T07:20:15;2.60;99.90
20726;DHT22;10524;48.132;8.518;2024-03-07T07:22:45;2.50;99.90
20726;DHT22;10524;48.132;8.518;2024-03-07T07:25:14;2.40;99.90
20726;DHT22;10524;48.132;8.518;2024-03-07T07:27:46;2.40;99.90
20726;DHT22;10524;48.132;8.518;2024-03-07T07:30:13;2.50;99.90
20726;DHT22;10524;48.132;8.518;2024-03-07T07:32:40;2.40;99.90
20726;DHT22;10524;48.132;8.518;2024-03-07T07:35:07;2.40;99.90
20726;DHT22;10524;48.132;8.518;2024-03-07T07:37:40;2.40;99.90
20726;DHT22;10524;48.132;8.518;2024-03-07T07:40:14;2.40;99.90
20726;DHT22;10524;48.132;8.518;2024-03-07T07:42:47;2.40;99.90
20726;DHT22;10524;48.132;8.518;2024-03-07T07:45:15;2.60;99.90
20726;DHT22;10524;48.132;8.518;2024-03-07T07:47:47;2.60;99.90
20726;DHT22;10524;48.132;8.518;2024-03-07T07:50:16;2.70;99.90
20726;DHT22;10524;48.132;8.518;2024-03-07T07:52:49;2.80;99.90
20726;DHT22;10524;48.132;8.518;2024-03-07T07:55:19;2.70;99.90
20726;DHT22;10524;48.132;8.518;2024-03-07T07:57:48;2.60;99.90
20726;DHT22;10524;48.132;8.518;2024-03-07T08:00:15;2.60;99.90
20726;DHT22;10524;48.132;8.518;2024-03-07T08:05:33;2.70;99.90
20726;DHT22;10524;48.132;8.518;2024-03-07T08:08:01;2.80;99.90
20726;DHT22;10524;48.132;8.518;2024-03-07T08:10:31;3.00;99.90
20726;DHT22;10524;48.132;8.518;2024-03-07T08:12:58;3.20;99.90
20726;DHT22;10524;48.132;8.518;2024-03-07T08:15:26;3.30;99.90
20726;DHT22;10524;48.132;8.518;2024-03-07T08:17:53;3.30;99.90
20726;DHT22;10524;48.132;8.518;2024-03-07T08:20:21;3.20;99.90
20726;DHT22;10524;48.132;8.518;2024-03-07T08:22:48;3.40;99.90
20726;DHT22;10524;48.132;8.518;2024-03-07T08:25:19;3.40;99.90
20726;DHT22;10524;48.132;8.518;2024-03-07T08:27:47;3.60;99.90
20726;DHT22;10524;48.132;8.518;2024-03-07T08:30:14;3.70;99.90
20726;DHT22;10524;48.132;8.518;2024-03-07T08:32:41;3.70;99.90
20726;DHT22;10524;48.132;8.518;2024-03-07T08:35:08;3.90;99.90
20726;DHT22;10524;48.132;8.518;2024-03-07T08:37:41;4.30;99.90
20726;DHT22;10524;48.132;8.518;2024-03-07T08:40:08;4.30;99.90
20726;DHT22;10524;48.132;8.518;2024-03-07T08:42:40;4.60;99.90
20726;DHT22;10524;48.132;8.518;2024-03-07T08:45:08;4.70;99.90
20726;DHT22;10524;48.132;8.518;2024-03-07T08:47:37;5.10;99.90
20726;DHT22;10524;48.132;8.518;2024-03-07T08:50:04;5.30;99.90
20726;DHT22;10524;48.132;8.518;2024-03-07T08:52:37;5.80;99.90
20726;DHT22;10524;48.132;8.518;2024-03-07T08:55:04;6.00;99.90
20726;DHT22;10524;48.132;8.518;2024-03-07T08:57:30;6.10;99.90
20726;DHT22;10524;48.132;8.518;2024-03-07T08:59:56;6.10;99.90
20726;DHT22;10524;48.132;8.518;2024-03-07T09:02:22;6.40;99.90
20726;DHT22;10524;48.132;8.518;2024-03-07T09:04:48;6.70;99.90
20726;DHT22;10524;48.132;8.518;2024-03-07T09:07:14;6.70;99.90
20726;DHT22;10524;48.132;8.518;2024-03-07T09:09:41;6.60;99.90
20726;DHT22;10524;48.132;8.518;2024-03-07T09:12:09;6.60;99.90
20726;DHT22;10524;48.132;8.518;2024-03-07T09:14:35;6.20;99.90
20726;DHT22;10524;48.132;8.518;2024-03-07T09:17:01;5.80;99.90
20726;DHT22;10524;48.132;8.518;2024-03-07T09:19:27;5.30;99.90
20726;DHT22;10524;48.132;8.518;2024-03-07T09:21:54;5.00;99.90
20726;DHT22;10524;48.132;8.518;2024-03-07T09:24:20;4.60;99.90
20726;DHT22;10524;48.132;8.518;2024-03-07T09:26:50;4.60;99.90
20726;DHT22;10524;48.132;8.518;2024-03-07T09:29:16;4.60;99.90
20726;DHT22;10524;48.132;8.518;2024-03-07T09:31:44;4.60;99.90
20726;DHT22;10524;48.132;8.518;2024-03-07T09:34:10;4.70;99.90
20726;DHT22;10524;48.132;8.518;2024-03-07T09:36:35;4.80;99.90
20726;DHT22;10524;48.132;8.518;2024-03-07T09:39:01;4.70;99.90
20726;DHT22;10524;48.132;8.518;2024-03-07T09:41:27;4.60;99.90
20726;DHT22;10524;48.132;8.518;2024-03-07T09:43:54;4.60;99.90
20726;DHT22;10524;48.132;8.518;2024-03-07T09:46:24;4.60;99.90
20726;DHT22;10524;48.132;8.518;2024-03-07T09:48:50;4.40;99.90
20726;DHT22;10524;48.132;8.518;2024-03-07T09:51:22;4.40;99.90
20726;DHT22;10524;48.132;8.518;2024-03-07T09:53:49;4.30;99.90
20726;DHT22;10524;48.132;8.518;2024-03-07T09:56:20;4.30;99.90
20726;DHT22;10524;48.132;8.518;2024-03-07T09:58:50;4.50;99.90
20726;DHT22;10524;48.132;8.518;2024-03-07T10:01:20;4.30;99.90
20726;DHT22;10524;48.132;8.518;2024-03-07T10:03:50;4.30;99.90
20726;DHT22;10524;48.132;8.518;2024-03-07T10:06:19;4.30;99.90
20726;DHT22;10524;48.132;8.518;2024-03-07T10:08:47;4.30;99.90
20726;DHT22;10524;48.132;8.518;2024-03-07T10:11:14;4.30;99.90
20726;DHT22;10524;48.132;8.518;2024-03-07T10:13:40;4.40;99.90
20726;DHT22;10524;48.132;8.518;2024-03-07T10:16:07;4.30;99.90
20726;DHT22;10524;48.132;8.518;2024-03-07T10:18:41;4.20;99.90
20726;DHT22;10524;48.132;8.518;2024-03-07T10:21:07;4.10;99.90
20726;DHT22;10524;48.132;8.518;2024-03-07T10:23:33;4.10;99.90
20726;DHT22;10524;48.132;8.518;2024-03-07T10:26:00;3.90;99.90
20726;DHT22;10524;48.132;8.518;2024-03-07T10:28:27;3.80;99.90
20726;DHT22;10524;48.132;8.518;2024-03-07T10:30:53;3.80;99.90
20726;DHT22;10524;48.132;8.518;2024-03-07T10:33:19;4.00;99.90
20726;DHT22;10524;48.132;8.518;2024-03-07T10:35:49;4.10;99.90
20726;DHT22;10524;48.132;8.518;2024-03-07T10:38:14;4.30;99.90
20726;DHT22;10524;48.132;8.518;2024-03-07T10:40:40;4.50;99.90
20726;DHT22;10524;48.132;8.518;2024-03-07T10:43:10;4.70;99.90
20726;DHT22;10524;48.132;8.518;2024-03-07T10:45:47;4.70;99.90
20726;DHT22;10524;48.132;8.518;2024-03-07T10:48:17;4.80;99.90
20726;DHT22;10524;48.132;8.518;2024-03-07T11:01:37;5.00;99.90
20726;DHT22;10524;48.132;8.518;2024-03-07T11:04:04;4.90;99.90
20726;DHT22;10524;48.132;8.518;2024-03-07T11:06:34;4.70;99.90
20726;DHT22;10524;48.132;8.518;2024-03-07T11:09:01;4.80;99.90
20726;DHT22;10524;48.132;8.518;2024-03-07T11:11:29;4.60;99.90
20726;DHT22;10524;48.132;8.518;2024-03-07T11:13:55;4.40;99.90
20726;DHT22;10524;48.132;8.518;2024-03-07T11:16:25;4.50;99.90
20726;DHT22;10524;48.132;8.518;2024-03-07T11:21:47;4.90;99.90
20726;DHT22;10524;48.132;8.518;2024-03-07T11:24:24;5.00;99.90
20726;DHT22;10524;48.132;8.518;2024-03-07T11:26:56;5.20;99.90
20726;DHT22;10524;48.132;8.518;2024-03-07T11:32:13;5.50;99.90
20726;DHT22;10524;48.132;8.518;2024-03-07T11:34:41;5.40;99.90
20726;DHT22;10524;48.132;8.518;2024-03-07T11:37:10;5.50;99.90
20726;DHT22;10524;48.132;8.518;2024-03-07T11:39:47;5.30;99.90
20726;DHT22;10524;48.132;8.518;2024-03-07T11:42:26;5.10;99.90
20726;DHT22;10524;48.132;8.518;2024-03-07T11:44:54;5.10;99.90
20726;DHT22;10524;48.132;8.518;2024-03-07T11:47:24;5.20;99.90
20726;DHT22;10524;48.132;8.518;2024-03-07T11:49:51;5.20;99.90
20726;DHT22;10524;48.132;8.518;2024-03-07T11:52:21;5.30;99.90
20726;DHT22;10524;48.132;8.518;2024-03-07T11:54:47;5.20;99.90
20726;DHT22;10524;48.132;8.518;2024-03-07T11:59:43;5.30;99.90
20726;DHT22;10524;48.132;8.518;2024-03-07T12:02:15;5.40;99.90
20726;DHT22;10524;48.132;8.518;2024-03-07T12:04:44;5.20;99.90
20726;DHT22;10524;48.132;8.518;2024-03-07T12:07:10;5.20;99.90
20726;DHT22;10524;48.132;8.518;2024-03-07T12:09:39;5.00;99.90
20726;DHT22;10524;48.132;8.518;2024-03-07T12:12:06;5.00;99.90
20726;DHT22;10524;48.132;8.518;2024-03-07T12:14:32;5.00;99.90
20726;DHT22;10524;48.132;8.518;2024-03-07T12:17:03;5.20;99.90
20726;DHT22;10524;48.132;8.518;2024-03-07T12:19:33;5.10;99.90
20726;DHT22;10524;48.132;8.518;2024-03-07T12:22:03;5.10;99.90
20726;DHT22;10524;48.132;8.518;2024-03-07T12:24:29;4.90;99.90
20726;DHT22;10524;48.132;8.518;2024-03-07T12:27:16;5.00;99.90
20726;DHT22;10524;48.132;8.518;2024-03-07T12:29:42;5.10;99.90
20726;DHT22;10524;48.132;8.518;2024-03-07T12:32:12;5.20;99.90
20726;DHT22;10524;48.132;8.518;2024-03-07T12:34:40;5.60;99.90
20726;DHT22;10524;48.132;8.518;2024-03-07T12:37:11;6.00;99.90
20726;DHT22;10524;48.132;8.518;2024-03-07T12:39:44;6.20;99.90
20726;DHT22;10524;48.132;8.518;2024-03-07T12:42:17;6.20;99.90
20726;DHT22;10524;48.132;8.518;2024-03-07T12:44:45;6.20;99.90
20726;DHT22;10524;48.132;8.518;2024-03-07T12:47:12;6.50;99.90
20726;DHT22;10524;48.132;8.518;2024-03-07T12:49:40;6.50;99.90
20726;DHT22;10524;48.132;8.518;2024-03-07T12:52:07;6.20;99.90
20726;DHT22;10524;48.132;8.518;2024-03-07T12:54:36;6.00;99.90
20726;DHT22;10524;48.132;8.518;2024-03-07T12:57:12;6.20;99.90
20726;DHT22;10524;48.132;8.518;2024-03-07T12:59:38;6.00;99.90
20726;DHT22;10524;48.132;8.518;2024-03-07T13:02:11;5.60;99.90
20726;DHT22;10524;48.132;8.518;2024-03-07T13:04:38;5.30;99.90
20726;DHT22;10524;48.132;8.518;2024-03-07T13:07:04;5.20;99.90
20726;DHT22;10524;48.132;8.518;2024-03-07T13:09:31;5.10;99.90
20726;DHT22;10524;48.132;8.518;2024-03-07T13:11:58;5.20;99.90
20726;DHT22;10524;48.132;8.518;2024-03-07T13:14:26;5.20;99.90
20726;DHT22;10524;48.132;8.518;2024-03-07T13:16:58;5.10;99.90
20726;DHT22;10524;48.132;8.518;2024-03-07T13:19:26;5.10;99.90
20726;DHT22;10524;48.132;8.518;2024-03-07T13:21:52;5.00;99.90
20726;DHT22;10524;48.132;8.518;2024-03-07T13:24:19;5.00;99.90
20726;DHT22;10524;48.132;8.518;2024-03-07T13:26:46;5.00;99.90
20726;DHT22;10524;48.132;8.518;2024-03-07T13:29:15;5.10;99.90
20726;DHT22;10524;48.132;8.518;2024-03-07T13:31:42;5.00;99.90
20726;DHT22;10524;48.132;8.518;2024-03-07T13:34:09;5.10;99.90
20726;DHT22;10524;48.132;8.518;2024-03-07T13:36:44;5.10;99.90
20726;DHT22;10524;48.132;8.518;2024-03-07T13:39:12;5.30;99.90
20726;DHT22;10524;48.132;8.518;2024-03-07T13:41:42;5.30;99.90
20726;DHT22;10524;48.132;8.518;2024-03-07T13:44:08;5.50;99.90
20726;DHT22;10524;48.132;8.518;2024-03-07T13:46:37;5.90;99.90
20726;DHT22;10524;48.132;8.518;2024-03-07T13:49:03;6.20;99.90
20726;DHT22;10524;48.132;8.518;2024-03-07T13:51:42;6.30;99.90
20726;DHT22;10524;48.132;8.518;2024-03-07T13:54:22;6.10;99.90
20726;DHT22;10524;48.132;8.518;2024-03-07T13:57:16;5.90;99.90
20726;DHT22;10524;48.132;8.518;2024-03-07T14:00:11;5.80;99.90
20726;DHT22;10524;48.132;8.518;2024-03-07T14:03:03;5.80;99.90
20726;DHT22;10524;48.132;8.518;2024-03-07T14:06:05;5.60;99.90
20726;DHT22;10524;48.132;8.518;2024-03-07T14:31:13;5.00;99.90
20726;DHT22;10524;48.132;8.518;2024-03-07T14:36:52;5.40;99.90
20726;DHT22;10524;48.132;8.518;2024-03-07T14:39:20;5.20;99.90
20726;DHT22;10524;48.132;8.518;2024-03-07T14:41:52;5.00;99.90
20726;DHT22;10524;48.132;8.518;2024-03-07T14:44:19;4.90;99.90
20726;DHT22;10524;48.132;8.518;2024-03-07T14:46:51;4.90;99.90
20726;DHT22;10524;48.132;8.518;2024-03-07T14:49:19;5.00;99.90
20726;DHT22;10524;48.132;8.518;2024-03-07T14:51:46;5.20;99.90
20726;DHT22;10524;48.132;8.518;2024-03-07T14:54:15;5.20;99.90
20726;DHT22;10524;48.132;8.518;2024-03-07T14:56:40;5.10;99.90
20726;DHT22;10524;48.132;8.518;2024-03-07T14:59:06;5.20;99.90
20726;DHT22;10524;48.132;8.518;2024-03-07T15:01:32;5.30;99.90
20726;DHT22;10524;48.132;8.518;2024-03-07T15:04:02;5.30;99.90
20726;DHT22;10524;48.132;8.518;2024-03-07T15:06:33;5.20;99.90
20726;DHT22;10524;48.132;8.518;2024-03-07T15:09:00;5.10;99.90
20726;DHT22;10524;48.132;8.518;2024-03-07T15:11:31;5.00;99.90
20726;DHT22;10524;48.132;8.518;2024-03-07T15:13:58;4.90;99.90
20726;DHT22;10524;48.132;8.518;2024-03-07T15:16:25;4.90;99.90
20726;DHT22;10524;48.132;8.518;2024-03-07T15:18:53;4.90;99.90
20726;DHT22;10524;48.132;8.518;2024-03-07T15:21:19;4.90;99.90
20726;DHT22;10524;48.132;8.518;2024-03-07T15:23:46;4.90;99.90
20726;DHT22;10524;48.132;8.518;2024-03-07T15:26:13;4.80;99.90
20726;DHT22;10524;48.132;8.518;2024-03-07T15:28:41;4.80;99.90
20726;DHT22;10524;48.132;8.518;2024-03-07T15:31:06;4.90;99.90
20726;DHT22;10524;48.132;8.518;2024-03-07T15:33:33;4.80;99.90
20726;DHT22;10524;48.132;8.518;2024-03-07T15:35:58;4.60;99.90
20726;DHT22;10524;48.132;8.518;2024-03-07T15:38:24;4.50;99.90
20726;DHT22;10524;48.132;8.518;2024-03-07T15:41:01;4.40;99.90
20726;DHT22;10524;48.132;8.518;2024-03-07T15:43:30;4.30;99.90
20726;DHT22;10524;48.132;8.518;2024-03-07T15:45:56;4.30;99.90
20726;DHT22;10524;48.132;8.518;2024-03-07T15:48:25;4.20;99.90
20726;DHT22;10524;48.132;8.518;2024-03-07T15:50:52;4.10;99.90
20726;DHT22;10524;48.132;8.518;2024-03-07T15:53:19;4.00;99.90
20726;DHT22;10524;48.132;8.518;2024-03-07T15:55:45;4.00;99.90
20726;DHT22;10524;48.132;8.518;2024-03-07T15:58:11;3.90;99.90
20726;DHT22;10524;48.132;8.518;2024-03-07T16:00:37;3.90;99.90
20726;DHT22;10524;48.132;8.518;2024-03-07T16:03:07;3.90;99.90
20726;DHT22;10524;48.132;8.518;2024-03-07T16:05:38;3.90;99.90
20726;DHT22;10524;48.132;8.518;2024-03-07T16:08:10;3.80;99.90
20726;DHT22;10524;48.132;8.518;2024-03-07T16:10:40;3.70;99.90
20726;DHT22;10524;48.132;8.518;2024-03-07T16:13:07;3.70;99.90
20726;DHT22;10524;48.132;8.518;2024-03-07T16:15:37;3.60;99.90
20726;DHT22;10524;48.132;8.518;2024-03-07T16:18:04;3.60;99.90
20726;DHT22;10524;48.132;8.518;2024-03-07T16:20:32;3.60;99.90
20726;DHT22;10524;48.132;8.518;2024-03-07T16:23:01;3.60;99.90
20726;DHT22;10524;48.132;8.518;2024-03-07T16:25:32;3.60;99.90
20726;DHT22;10524;48.132;8.518;2024-03-07T16:28:04;3.50;99.90
20726;DHT22;10524;48.132;8.518;2024-03-07T16:30:31;3.50;99.90
20726;DHT22;10524;48.132;8.518;2024-03-07T16:32:57;3.60;99.90
20726;DHT22;10524;48.132;8.518;2024-03-07T16:35:26;3.60;99.90
20726;DHT22;10524;48.132;8.518;2024-03-07T16:37:52;3.60;99.90